createdAt,value
2023-01-29T00:00:32.906Z,79.38
2023-01-29T00:01:32.894Z,79.27
2023-01-29T00:02:32.922Z,79.48
2023-01-29T00:03:32.880Z,79.16
2023-01-29T00:04:32.861Z,79.16
2023-01-29T00:05:32.871Z,78.85
2023-01-29T00:06:32.850Z,78.89
2023-01-29T00:07:32.853Z,79.27
2023-01-29T00:08:32.856Z,79.72
2023-01-29T00:09:32.840Z,79.52
2023-01-29T00:10:32.835Z,80.25
2023-01-29T00:11:32.828Z,80.71
2023-01-29T00:12:32.821Z,81.02
2023-01-29T00:13:32.815Z,81.65
2023-01-29T00:14:32.797Z,81.48
2023-01-29T00:15:32.814Z,81.37
2023-01-29T00:16:32.823Z,81.79
2023-01-29T00:17:32.788Z,81.90
2023-01-29T00:18:32.768Z,81.37
2023-01-29T00:19:32.766Z,82.10
2023-01-29T00:20:32.764Z,82.74
2023-01-29T00:21:32.759Z,82.53
2023-01-29T00:22:32.775Z,83.05
2023-01-29T00:23:32.741Z,82.63
2023-01-29T00:24:32.889Z,82.53
2023-01-29T00:25:32.734Z,82.98
2023-01-29T00:26:32.728Z,82.67
2023-01-29T00:27:32.732Z,83.09
2023-01-29T00:28:32.707Z,82.88
2023-01-29T00:29:32.715Z,82.88
2023-01-29T00:30:32.713Z,83.40
2023-01-29T00:31:32.784Z,83.09
2023-01-29T00:32:32.684Z,83.30
2023-01-29T00:33:32.683Z,83.51
2023-01-29T00:34:32.673Z,83.40
2023-01-29T00:35:32.683Z,84.03
2023-01-29T00:36:32.659Z,84.08
2023-01-29T00:37:32.641Z,83.76
2023-01-29T00:38:32.644Z,83.72
2023-01-29T00:39:46.828Z,82.92
2023-01-29T00:40:33.648Z,83.13
2023-01-29T00:41:32.629Z,83.44
2023-01-29T00:42:32.618Z,83.72
2023-01-29T00:43:32.608Z,83.97
2023-01-29T00:44:32.605Z,84.39
2023-01-29T00:45:32.615Z,84.08
2023-01-29T00:46:32.672Z,84.08
2023-01-29T00:47:32.584Z,84.28
2023-01-29T00:48:32.579Z,84.08
2023-01-29T00:49:32.582Z,84.28
2023-01-29T00:50:32.572Z,84.49
2023-01-29T00:51:32.559Z,84.39
2023-01-29T00:52:32.581Z,84.28
2023-01-29T00:53:32.547Z,84.49
2023-01-29T00:54:33.240Z,84.81
2023-01-29T00:55:32.539Z,84.60
2023-01-29T00:56:32.518Z,84.70
2023-01-29T00:57:32.518Z,84.60
2023-01-29T00:58:32.534Z,85.06
2023-01-29T00:59:32.505Z,85.13
2023-01-29T01:00:32.533Z,85.23
2023-01-29T01:01:32.494Z,85.16
2023-01-29T01:02:32.493Z,84.95
2023-01-29T01:03:32.504Z,84.91
2023-01-29T01:04:34.952Z,84.95
2023-01-29T01:05:32.470Z,85.55
2023-01-29T01:06:32.460Z,85.55
2023-01-29T01:07:32.484Z,84.70
2023-01-29T01:08:32.467Z,83.97
2023-01-29T01:09:32.466Z,84.08
2023-01-29T01:10:32.455Z,84.18
2023-01-29T01:11:32.448Z,84.22
2023-01-29T01:12:32.419Z,84.08
2023-01-29T01:13:32.419Z,84.42
2023-01-29T01:14:32.412Z,84.60
2023-01-29T01:15:32.403Z,84.95
2023-01-29T01:16:32.466Z,85.16
2023-01-29T01:17:32.389Z,85.06
2023-01-29T01:18:32.414Z,84.95
2023-01-29T01:19:32.385Z,85.69
2023-01-29T01:20:32.399Z,85.41
2023-01-29T01:21:32.385Z,85.69
2023-01-29T01:22:32.360Z,85.37
2023-01-29T01:23:32.355Z,85.69
2023-01-29T01:24:32.401Z,85.62
2023-01-29T01:25:32.340Z,85.62
2023-01-29T01:26:32.358Z,85.79
2023-01-29T01:27:32.334Z,85.73
2023-01-29T01:28:32.323Z,85.52
2023-01-29T01:29:32.328Z,85.73
2023-01-29T01:30:32.303Z,85.83
2023-01-29T01:31:32.309Z,85.41
2023-01-29T01:32:32.321Z,85.58
2023-01-29T01:33:32.311Z,85.06
2023-01-29T01:34:32.277Z,85.48
2023-01-29T01:35:32.293Z,85.16
2023-01-29T01:36:32.281Z,85.83
2023-01-29T01:37:32.265Z,85.62
2023-01-29T01:38:32.274Z,86.57
2023-01-29T01:39:32.270Z,87.10
2023-01-29T01:40:32.252Z,86.78
2023-01-29T01:41:32.252Z,86.78
2023-01-29T01:42:32.232Z,86.78
2023-01-29T01:43:32.253Z,87.20
2023-01-29T01:44:32.217Z,86.99
2023-01-29T01:45:32.310Z,86.78
2023-01-29T01:46:32.206Z,87.20
2023-01-29T01:47:32.207Z,87.45
2023-01-29T01:48:32.202Z,87.24
2023-01-29T01:49:32.197Z,86.82
2023-01-29T01:50:32.207Z,86.93
2023-01-29T01:51:32.179Z,87.13
2023-01-29T01:52:32.165Z,86.71
2023-01-29T01:53:32.166Z,86.93
2023-01-29T01:54:32.166Z,86.93
2023-01-29T01:55:32.151Z,87.24
2023-01-29T01:56:32.160Z,87.13
2023-01-29T01:57:32.138Z,87.35
2023-01-29T01:58:32.145Z,87.76
2023-01-29T01:59:32.141Z,87.13
2023-01-29T02:00:32.111Z,87.03
2023-01-29T02:01:32.114Z,87.24
2023-01-29T02:02:32.164Z,87.45
2023-01-29T02:03:32.113Z,87.70
2023-01-29T02:04:32.097Z,87.24
2023-01-29T02:05:32.088Z,87.45
2023-01-29T02:06:32.081Z,87.45
2023-01-29T02:07:32.085Z,88.08
2023-01-29T02:08:32.065Z,87.35
2023-01-29T02:09:32.058Z,87.55
2023-01-29T02:10:32.049Z,87.35
2023-01-29T02:11:32.059Z,87.35
2023-01-29T02:12:32.058Z,87.35
2023-01-29T02:13:32.047Z,87.24
2023-01-29T02:14:32.047Z,87.45
2023-01-29T02:15:32.018Z,87.24
2023-01-29T02:16:32.032Z,87.03
2023-01-29T02:17:32.107Z,87.24
2023-01-29T02:18:32.002Z,87.03
2023-01-29T02:19:31.990Z,86.93
2023-01-29T02:20:31.999Z,87.03
2023-01-29T02:21:31.986Z,87.35
2023-01-29T02:22:31.989Z,87.13
2023-01-29T02:23:31.997Z,86.82
2023-01-29T02:24:31.976Z,87.28
2023-01-29T02:25:31.960Z,87.18
2023-01-29T02:26:31.955Z,87.24
2023-01-29T02:27:31.940Z,87.03
2023-01-29T02:28:31.962Z,86.93
2023-01-29T02:29:31.955Z,86.82
2023-01-29T02:30:31.935Z,86.93
2023-01-29T02:31:31.948Z,86.93
2023-01-29T02:32:31.906Z,86.82
2023-01-29T02:33:31.906Z,86.61
2023-01-29T02:34:31.908Z,86.76
2023-01-29T02:35:31.934Z,87.07
2023-01-29T02:36:31.901Z,87.24
2023-01-29T02:37:31.881Z,87.38
2023-01-29T02:38:31.892Z,87.18
2023-01-29T02:39:31.860Z,87.70
2023-01-29T02:40:31.884Z,87.70
2023-01-29T02:41:31.849Z,87.70
2023-01-29T02:42:31.851Z,88.02
2023-01-29T02:43:31.858Z,87.49
2023-01-29T02:44:31.826Z,88.23
2023-01-29T02:45:31.859Z,88.23
2023-01-29T02:46:31.852Z,88.12
2023-01-29T02:47:31.836Z,87.60
2023-01-29T02:48:31.807Z,87.49
2023-01-29T02:49:31.805Z,88.02
2023-01-29T02:50:31.787Z,87.74
2023-01-29T02:51:31.802Z,87.74
2023-01-29T02:52:31.777Z,87.70
2023-01-29T02:53:31.798Z,88.06
2023-01-29T02:54:31.764Z,87.85
2023-01-29T02:55:31.752Z,88.16
2023-01-29T02:56:31.743Z,88.06
2023-01-29T02:57:31.738Z,87.53
2023-01-29T02:58:31.739Z,87.74
2023-01-29T02:59:31.749Z,87.53
2023-01-29T03:00:31.722Z,87.53
2023-01-29T03:01:31.741Z,88.06
2023-01-29T03:02:31.799Z,88.58
2023-01-29T03:03:31.727Z,88.58
2023-01-29T03:04:31.708Z,88.69
2023-01-29T03:05:31.699Z,88.90
2023-01-29T03:06:31.682Z,88.58
2023-01-29T03:07:31.686Z,89.00
2023-01-29T03:08:31.686Z,89.00
2023-01-29T03:09:31.682Z,88.58
2023-01-29T03:10:31.666Z,87.74
2023-01-29T03:11:31.651Z,87.74
2023-01-29T03:12:31.655Z,87.74
2023-01-29T03:13:31.651Z,88.27
2023-01-29T03:14:31.666Z,88.58
2023-01-29T03:15:31.631Z,88.94
2023-01-29T03:16:31.643Z,88.90
2023-01-29T03:17:31.627Z,88.58
2023-01-29T03:18:31.697Z,89.00
2023-01-29T03:19:31.616Z,88.90
2023-01-29T03:20:31.622Z,88.79
2023-01-29T03:21:31.601Z,88.48
2023-01-29T03:22:31.602Z,88.48
2023-01-29T03:23:31.649Z,88.16
2023-01-29T03:24:31.575Z,87.63
2023-01-29T03:25:31.575Z,87.53
2023-01-29T03:26:31.591Z,87.53
2023-01-29T03:27:31.578Z,87.63
2023-01-29T03:28:31.708Z,87.53
2023-01-29T03:29:31.558Z,87.74
2023-01-29T03:30:31.538Z,88.27
2023-01-29T03:31:31.627Z,89.00
2023-01-29T03:32:31.527Z,89.57
2023-01-29T03:33:31.518Z,89.57
2023-01-29T03:34:31.525Z,89.68
2023-01-29T03:35:31.508Z,89.74
2023-01-29T03:36:31.517Z,89.84
2023-01-29T03:37:31.494Z,89.32
2023-01-29T03:38:31.487Z,89.53
2023-01-29T03:39:31.485Z,89.32
2023-01-29T03:40:31.463Z,89.53
2023-01-29T03:41:31.469Z,89.42
2023-01-29T03:42:31.486Z,89.32
2023-01-29T03:43:31.475Z,89.78
2023-01-29T03:44:31.452Z,89.57
2023-01-29T03:45:31.442Z,89.47
2023-01-29T03:46:31.436Z,89.64
2023-01-29T03:47:31.425Z,89.57
2023-01-29T03:48:31.423Z,89.25
2023-01-29T03:49:31.483Z,89.68
2023-01-29T03:50:31.408Z,91.05
2023-01-29T03:51:31.416Z,90.77
2023-01-29T03:52:31.392Z,90.67
2023-01-29T03:53:31.387Z,89.72
2023-01-29T03:54:31.384Z,89.82
2023-01-29T03:55:31.386Z,89.72
2023-01-29T03:56:31.367Z,90.98
2023-01-29T03:57:31.375Z,90.94
2023-01-29T03:58:31.350Z,89.25
2023-01-29T03:59:31.354Z,89.15
2023-01-29T04:00:31.337Z,89.68
2023-01-29T04:01:31.339Z,89.68
2023-01-29T04:02:31.336Z,89.68
2023-01-29T04:03:31.315Z,89.36
2023-01-29T04:04:31.312Z,89.57
2023-01-29T04:05:31.308Z,90.20
2023-01-29T04:06:31.301Z,89.32
2023-01-29T04:07:31.315Z,89.57
2023-01-29T04:08:31.286Z,89.42
2023-01-29T04:09:31.283Z,89.53
2023-01-29T04:10:31.285Z,89.89
2023-01-29T04:11:31.268Z,89.57
2023-01-29T04:12:31.263Z,89.42
2023-01-29T04:13:31.282Z,89.47
2023-01-29T04:14:31.246Z,89.47
2023-01-29T04:15:31.259Z,89.15
2023-01-29T04:16:31.262Z,89.78
2023-01-29T04:17:31.233Z,89.32
2023-01-29T04:18:31.245Z,89.25
2023-01-29T04:19:32.187Z,89.53
2023-01-29T04:20:31.228Z,89.84
2023-01-29T04:21:31.210Z,89.42
2023-01-29T04:22:38.210Z,89.53
2023-01-29T04:23:31.203Z,89.22
2023-01-29T04:24:31.202Z,88.90
2023-01-29T04:25:31.177Z,88.33
2023-01-29T04:26:31.192Z,88.79
2023-01-29T04:27:31.167Z,89.11
2023-01-29T04:28:31.161Z,88.90
2023-01-29T04:29:31.158Z,89.22
2023-01-29T04:30:31.175Z,89.32
2023-01-29T04:31:31.212Z,89.22
2023-01-29T04:32:31.130Z,89.42
2023-01-29T04:33:31.127Z,89.11
2023-01-29T04:34:31.119Z,89.28
2023-01-29T04:35:31.117Z,88.58
2023-01-29T04:36:31.127Z,87.63
2023-01-29T04:37:31.123Z,87.49
2023-01-29T04:38:31.087Z,88.02
2023-01-29T04:39:31.088Z,87.55
2023-01-29T04:40:31.083Z,87.35
2023-01-29T04:41:31.127Z,87.38
2023-01-29T04:42:31.070Z,87.24
2023-01-29T04:43:31.079Z,87.24
2023-01-29T04:44:31.060Z,87.24
2023-01-29T04:45:31.050Z,87.35
2023-01-29T04:46:31.041Z,87.03
2023-01-29T04:47:31.076Z,86.68
2023-01-29T04:48:31.029Z,86.88
2023-01-29T04:49:31.052Z,86.78
2023-01-29T04:50:31.024Z,86.93
2023-01-29T04:51:31.046Z,86.61
2023-01-29T04:52:31.001Z,86.40
2023-01-29T04:53:31.000Z,86.61
2023-01-29T04:54:30.993Z,86.68
2023-01-29T04:55:30.987Z,87.20
2023-01-29T04:56:30.984Z,86.25
2023-01-29T04:57:31.001Z,86.19
2023-01-29T04:58:30.972Z,86.19
2023-01-29T04:59:30.971Z,87.03
2023-01-29T05:00:30.960Z,87.13
2023-01-29T05:01:30.995Z,86.40
2023-01-29T05:02:31.017Z,87.18
2023-01-29T05:03:30.935Z,86.82
2023-01-29T05:04:30.940Z,86.93
2023-01-29T05:05:30.927Z,87.18
2023-01-29T05:06:30.923Z,87.18
2023-01-29T05:07:30.914Z,87.49
2023-01-29T05:08:30.918Z,86.96
2023-01-29T05:09:30.903Z,87.38
2023-01-29T05:10:30.889Z,87.91
2023-01-29T05:11:30.910Z,87.60
2023-01-29T05:12:30.887Z,87.38
2023-01-29T05:13:30.887Z,87.45
2023-01-29T05:14:30.873Z,87.38
2023-01-29T05:15:30.854Z,87.74
2023-01-29T05:16:30.850Z,87.74
2023-01-29T05:17:30.850Z,88.58
2023-01-29T05:18:30.835Z,89.00
2023-01-29T05:19:30.851Z,89.11
2023-01-29T05:20:30.842Z,89.11
2023-01-29T05:21:30.820Z,89.22
2023-01-29T05:22:30.813Z,89.11
2023-01-29T05:23:30.806Z,89.17
2023-01-29T05:24:30.923Z,89.07
2023-01-29T05:25:30.810Z,88.79
2023-01-29T05:26:30.780Z,89.39
2023-01-29T05:27:30.791Z,89.07
2023-01-29T05:28:30.775Z,89.39
2023-01-29T05:29:30.770Z,89.39
2023-01-29T05:30:30.762Z,89.07
2023-01-29T05:31:30.881Z,88.44
2023-01-29T05:32:30.751Z,87.60
2023-01-29T05:33:30.739Z,87.49
2023-01-29T05:34:30.740Z,87.55
2023-01-29T05:35:30.751Z,87.18
2023-01-29T05:36:30.735Z,88.65
2023-01-29T05:37:30.715Z,87.66
2023-01-29T05:38:30.708Z,87.98
2023-01-29T05:39:30.707Z,87.24
2023-01-29T05:40:30.705Z,87.35
2023-01-29T05:41:30.705Z,87.49
2023-01-29T05:42:30.676Z,87.70
2023-01-29T05:43:30.689Z,86.93
2023-01-29T05:44:30.677Z,87.24
2023-01-29T05:45:30.661Z,87.66
2023-01-29T05:46:30.697Z,87.45
2023-01-29T05:47:30.686Z,87.49
2023-01-29T05:48:30.658Z,87.38
2023-01-29T05:49:30.651Z,87.13
2023-01-29T05:50:30.646Z,87.24
2023-01-29T05:51:30.637Z,87.24
2023-01-29T05:52:30.679Z,86.61
2023-01-29T05:53:30.620Z,86.93
2023-01-29T05:54:30.628Z,86.82
2023-01-29T05:55:30.620Z,87.03
2023-01-29T05:56:30.592Z,87.18
2023-01-29T05:57:30.620Z,87.38
2023-01-29T05:58:30.581Z,88.37
2023-01-29T05:59:30.576Z,87.85
2023-01-29T06:00:30.576Z,88.06
2023-01-29T06:01:30.612Z,87.74
2023-01-29T06:02:30.564Z,87.95
2023-01-29T06:03:30.575Z,87.85
2023-01-29T06:04:30.556Z,87.53
2023-01-29T06:05:30.544Z,87.85
2023-01-29T06:06:30.538Z,87.74
2023-01-29T06:07:30.526Z,87.74
2023-01-29T06:08:30.517Z,87.95
2023-01-29T06:09:30.541Z,87.85
2023-01-29T06:10:30.520Z,87.53
2023-01-29T06:11:30.512Z,88.48
2023-01-29T06:12:30.502Z,88.90
2023-01-29T06:13:30.497Z,88.73
2023-01-29T06:14:30.496Z,89.25
2023-01-29T06:15:30.505Z,89.15
2023-01-29T06:16:30.590Z,89.78
2023-01-29T06:17:30.493Z,89.68
2023-01-29T06:18:30.474Z,89.19
2023-01-29T06:19:30.457Z,90.25
2023-01-29T06:20:30.448Z,90.03
2023-01-29T06:21:30.454Z,90.88
2023-01-29T06:22:30.433Z,90.67
2023-01-29T06:23:30.455Z,90.98
2023-01-29T06:24:30.510Z,90.98
2023-01-29T06:25:30.432Z,90.67
2023-01-29T06:26:30.418Z,90.45
2023-01-29T06:27:30.431Z,90.77
2023-01-29T06:28:30.394Z,90.77
2023-01-29T06:29:30.396Z,90.67
2023-01-29T06:30:30.427Z,90.67
2023-01-29T06:31:38.815Z,90.67
2023-01-29T06:32:31.510Z,90.67
2023-01-29T06:33:30.369Z,90.50
2023-01-29T06:34:30.363Z,90.70
2023-01-29T06:35:30.372Z,91.02
2023-01-29T06:36:30.372Z,90.70
2023-01-29T06:37:30.347Z,90.70
2023-01-29T06:38:30.335Z,90.60
2023-01-29T06:39:30.332Z,90.70
2023-01-29T06:40:30.320Z,90.50
2023-01-29T06:41:30.322Z,90.81
2023-01-29T06:42:30.332Z,91.13
2023-01-29T06:43:30.327Z,90.70
2023-01-29T06:44:30.312Z,90.96
2023-01-29T06:45:30.347Z,90.70
2023-01-29T06:46:30.283Z,90.81
2023-01-29T06:47:30.319Z,90.81
2023-01-29T06:48:30.270Z,90.35
2023-01-29T06:49:30.268Z,91.09
2023-01-29T06:50:30.258Z,89.61
2023-01-29T06:51:30.257Z,89.61
2023-01-29T06:52:30.248Z,89.72
2023-01-29T06:53:30.266Z,89.51
2023-01-29T06:54:30.239Z,89.65
2023-01-29T06:55:30.232Z,89.76
2023-01-29T06:56:30.219Z,89.97
2023-01-29T06:57:30.232Z,89.86
2023-01-29T06:58:30.204Z,89.97
2023-01-29T06:59:30.237Z,91.02
2023-01-29T07:00:31.513Z,90.92
2023-01-29T07:01:36.209Z,90.75
2023-01-29T07:02:31.274Z,91.24
2023-01-29T07:03:30.199Z,91.17
2023-01-29T07:04:30.164Z,91.13
2023-01-29T07:05:30.197Z,90.81
2023-01-29T07:06:30.151Z,90.92
2023-01-29T07:07:30.176Z,90.60
2023-01-29T07:08:30.185Z,90.50
2023-01-29T07:09:30.152Z,90.92
2023-01-29T07:10:30.135Z,91.02
2023-01-29T07:11:30.129Z,91.02
2023-01-29T07:12:30.118Z,89.82
2023-01-29T07:13:30.136Z,89.72
2023-01-29T07:14:30.105Z,89.51
2023-01-29T07:15:30.105Z,89.51
2023-01-29T07:16:30.164Z,89.51
2023-01-29T07:17:30.100Z,89.93
2023-01-29T07:18:30.081Z,89.61
2023-01-29T07:19:30.076Z,90.77
2023-01-29T07:20:30.236Z,90.77
2023-01-29T07:21:30.062Z,91.19
2023-01-29T07:22:30.056Z,90.98
2023-01-29T07:23:30.044Z,90.67
2023-01-29T07:24:30.148Z,91.09
2023-01-29T07:25:30.040Z,90.52
2023-01-29T07:26:30.052Z,89.99
2023-01-29T07:27:30.022Z,89.36
2023-01-29T07:28:30.015Z,89.25
2023-01-29T07:29:30.033Z,89.78
2023-01-29T07:30:29.997Z,90.94
2023-01-29T07:31:30.081Z,89.36
2023-01-29T07:32:29.992Z,89.57
2023-01-29T07:33:29.978Z,90.94
2023-01-29T07:34:29.983Z,90.73
2023-01-29T07:35:29.993Z,90.73
2023-01-29T07:36:29.979Z,89.32
2023-01-29T07:37:29.957Z,89.68
2023-01-29T07:38:29.951Z,90.94
2023-01-29T07:39:29.941Z,90.69
2023-01-29T07:40:29.928Z,89.78
2023-01-29T07:41:29.964Z,88.90
2023-01-29T07:42:29.923Z,89.74
2023-01-29T07:43:29.924Z,89.42
2023-01-29T07:44:29.899Z,89.64
2023-01-29T07:45:29.981Z,89.42
2023-01-29T07:46:29.896Z,89.49
2023-01-29T07:47:29.888Z,89.42
2023-01-29T07:48:29.876Z,89.53
2023-01-29T07:49:29.879Z,89.11
2023-01-29T07:50:29.886Z,89.11
2023-01-29T07:51:29.862Z,89.28
2023-01-29T07:52:29.854Z,88.40
2023-01-29T07:53:29.874Z,88.08
2023-01-29T07:54:29.835Z,87.13
2023-01-29T07:55:29.841Z,86.68
2023-01-29T07:56:29.829Z,86.57
2023-01-29T07:57:29.819Z,86.00
2023-01-29T07:58:29.818Z,86.07
2023-01-29T07:59:29.829Z,84.91
2023-01-29T08:00:29.798Z,83.58
2023-01-29T08:01:29.849Z,83.12
2023-01-29T08:02:29.852Z,81.05
2023-01-29T08:03:29.779Z,79.65
2023-01-29T08:04:29.814Z,78.74
2023-01-29T08:05:29.778Z,78.08
2023-01-29T08:06:29.773Z,76.93
2023-01-29T08:07:29.773Z,76.79
2023-01-29T08:08:29.761Z,76.68
2023-01-29T08:09:29.747Z,76.65
2023-01-29T08:10:29.750Z,76.82
2023-01-29T08:11:29.759Z,75.15
2023-01-29T08:12:29.723Z,74.10
2023-01-29T08:13:29.739Z,74.42
2023-01-29T08:14:29.734Z,75.22
2023-01-29T08:15:29.733Z,75.32
2023-01-29T08:16:29.813Z,73.44
2023-01-29T08:17:29.699Z,73.37
2023-01-29T08:18:29.697Z,74.24
2023-01-29T08:19:29.692Z,75.53
2023-01-29T08:20:29.689Z,76.09
2023-01-29T08:21:29.668Z,76.47
2023-01-29T08:22:29.679Z,76.93
2023-01-29T08:23:29.670Z,76.57
2023-01-29T08:24:41.518Z,76.82
2023-01-29T08:25:30.687Z,76.96
2023-01-29T08:26:29.651Z,77.48
2023-01-29T08:27:29.632Z,77.59
2023-01-29T08:28:29.640Z,77.62
2023-01-29T08:29:29.659Z,79.09
2023-01-29T08:30:29.636Z,78.81
2023-01-29T08:31:29.674Z,79.44
2023-01-29T08:32:29.596Z,79.55
2023-01-29T08:33:38.384Z,80.07
2023-01-29T08:34:30.601Z,80.18
2023-01-29T08:35:29.593Z,79.79
2023-01-29T08:36:29.568Z,80.60
2023-01-29T08:37:29.563Z,80.63
2023-01-29T08:38:29.566Z,80.63
2023-01-29T08:39:29.548Z,81.51
2023-01-29T08:40:29.547Z,81.30
2023-01-29T08:41:29.541Z,81.93
2023-01-29T08:42:29.536Z,81.61
2023-01-29T08:43:29.538Z,81.93
2023-01-29T08:44:29.532Z,82.03
2023-01-29T08:45:29.527Z,81.89
2023-01-29T08:46:29.512Z,81.40
2023-01-29T08:47:29.737Z,81.61
2023-01-29T08:48:29.490Z,81.93
2023-01-29T08:49:29.515Z,81.30
2023-01-29T08:50:29.479Z,80.98
2023-01-29T08:51:29.497Z,81.51
2023-01-29T08:52:29.468Z,81.82
2023-01-29T08:53:29.486Z,82.03
2023-01-29T08:54:29.449Z,82.03
2023-01-29T08:55:29.454Z,81.93
2023-01-29T08:56:29.454Z,82.24
2023-01-29T08:57:29.438Z,82.98
2023-01-29T08:58:29.447Z,82.76
2023-01-29T08:59:29.461Z,82.76
2023-01-29T09:00:29.421Z,82.45
2023-01-29T09:01:29.465Z,82.35
2023-01-29T09:02:29.425Z,83.08
2023-01-29T09:03:29.431Z,83.33
2023-01-29T09:04:29.401Z,83.64
2023-01-29T09:05:29.411Z,83.75
2023-01-29T09:06:29.391Z,84.17
2023-01-29T09:07:29.396Z,83.96
2023-01-29T09:08:29.359Z,83.96
2023-01-29T09:09:29.375Z,84.48
2023-01-29T09:10:29.342Z,84.91
2023-01-29T09:11:29.347Z,84.69
2023-01-29T09:12:29.345Z,84.91
2023-01-29T09:13:29.356Z,85.05
2023-01-29T09:14:29.335Z,85.11
2023-01-29T09:15:29.333Z,85.36
2023-01-29T09:16:29.358Z,85.57
2023-01-29T09:17:29.312Z,85.78
2023-01-29T09:18:29.332Z,85.99
2023-01-29T09:19:29.337Z,86.45
2023-01-29T09:20:29.291Z,86.10
2023-01-29T09:21:29.289Z,86.41
2023-01-29T09:22:29.306Z,86.94
2023-01-29T09:23:29.288Z,86.52
2023-01-29T09:24:29.283Z,86.83
2023-01-29T09:25:29.289Z,86.72
2023-01-29T09:26:29.309Z,86.62
2023-01-29T09:27:29.252Z,85.89
2023-01-29T09:28:29.238Z,86.20
2023-01-29T09:29:29.230Z,86.20
2023-01-29T09:30:29.220Z,86.58
2023-01-29T09:31:29.315Z,86.37
2023-01-29T09:32:53.078Z,86.37
2023-01-29T09:33:30.232Z,86.02
2023-01-29T09:34:29.202Z,85.53
2023-01-29T09:35:29.198Z,85.11
2023-01-29T09:36:29.202Z,85.49
2023-01-29T09:37:29.183Z,84.91
2023-01-29T09:38:29.172Z,84.86
2023-01-29T09:39:29.192Z,84.55
2023-01-29T09:40:29.159Z,84.55
2023-01-29T09:41:29.151Z,84.20
2023-01-29T09:42:29.147Z,84.20
2023-01-29T09:43:29.166Z,83.88
2023-01-29T09:44:29.153Z,84.20
2023-01-29T09:45:29.129Z,84.20
2023-01-29T09:46:29.126Z,83.47
2023-01-29T09:47:29.120Z,82.52
2023-01-29T09:48:29.124Z,82.73
2023-01-29T09:49:29.132Z,82.31
2023-01-29T09:50:29.095Z,81.99
2023-01-29T09:51:29.111Z,82.17
2023-01-29T09:52:29.101Z,82.31
2023-01-29T09:53:29.093Z,82.83
2023-01-29T09:54:29.117Z,82.20
2023-01-29T09:55:29.106Z,81.05
2023-01-29T09:56:29.124Z,82.03
2023-01-29T09:57:29.075Z,81.57
2023-01-29T09:58:29.041Z,82.87
2023-01-29T09:59:29.072Z,82.73
2023-01-29T10:00:29.058Z,82.76
2023-01-29T10:01:29.089Z,82.90
2023-01-29T10:02:29.034Z,82.73
2023-01-29T10:03:29.005Z,81.60
2023-01-29T10:04:29.012Z,82.06
2023-01-29T10:05:29.018Z,81.71
2023-01-29T10:06:28.994Z,80.98
2023-01-29T10:07:28.972Z,80.56
2023-01-29T10:08:28.988Z,80.66
2023-01-29T10:09:28.982Z,81.19
2023-01-29T10:10:28.965Z,80.52
2023-01-29T10:11:28.974Z,81.04
2023-01-29T10:12:28.957Z,80.27
2023-01-29T10:13:28.950Z,80.07
2023-01-29T10:14:28.952Z,79.50
2023-01-29T10:15:28.950Z,79.16
2023-01-29T10:16:28.919Z,78.42
2023-01-29T10:17:28.917Z,77.24
2023-01-29T10:18:28.926Z,76.72
2023-01-29T10:19:28.899Z,75.74
2023-01-29T10:20:28.890Z,75.67
2023-01-29T10:21:28.908Z,74.49
2023-01-29T10:22:28.896Z,74.25
2023-01-29T10:23:35.908Z,72.58
2023-01-29T10:24:28.887Z,71.92
2023-01-29T10:25:28.876Z,71.05
2023-01-29T10:26:28.883Z,70.64
2023-01-29T10:27:28.863Z,70.01
2023-01-29T10:28:28.845Z,70.43
2023-01-29T10:29:28.870Z,70.01
2023-01-29T10:30:28.851Z,69.91
2023-01-29T10:31:28.926Z,70.53
2023-01-29T10:32:28.817Z,69.46
2023-01-29T10:33:31.059Z,68.70
2023-01-29T10:34:29.833Z,68.49
2023-01-29T10:35:28.793Z,67.52
2023-01-29T10:36:28.800Z,67.70
2023-01-29T10:37:28.813Z,67.55
2023-01-29T10:38:28.781Z,68.10
2023-01-29T10:39:28.856Z,69.70
2023-01-29T10:40:28.782Z,70.01
2023-01-29T10:41:28.797Z,70.56
2023-01-29T10:42:28.762Z,70.64
2023-01-29T10:43:28.746Z,70.22
2023-01-29T10:44:28.752Z,70.95
2023-01-29T10:45:28.740Z,71.37
2023-01-29T10:46:28.739Z,70.12
2023-01-29T10:47:30.397Z,71.05
2023-01-29T10:48:28.724Z,70.15
2023-01-29T10:49:28.707Z,71.40
2023-01-29T10:50:28.718Z,71.85
2023-01-29T10:51:28.703Z,71.64
2023-01-29T10:52:28.687Z,72.06
2023-01-29T10:53:28.750Z,71.19
2023-01-29T10:54:28.683Z,71.22
2023-01-29T10:55:28.686Z,72.27
2023-01-29T10:56:28.676Z,71.30
2023-01-29T10:57:28.674Z,71.22
2023-01-29T10:58:28.660Z,70.36
2023-01-29T10:59:28.680Z,70.22
2023-01-29T11:00:28.661Z,69.77
2023-01-29T11:01:28.691Z,69.50
2023-01-29T11:02:28.653Z,67.91
2023-01-29T11:03:29.229Z,67.80
2023-01-29T11:04:28.628Z,67.15
2023-01-29T11:05:28.641Z,66.39
2023-01-29T11:06:28.636Z,65.63
2023-01-29T11:07:28.617Z,64.56
2023-01-29T11:08:28.605Z,64.59
2023-01-29T11:09:28.590Z,65.45
2023-01-29T11:10:28.605Z,66.11
2023-01-29T11:11:28.582Z,66.50
2023-01-29T11:12:28.579Z,66.18
2023-01-29T11:13:28.572Z,65.45
2023-01-29T11:14:28.567Z,65.56
2023-01-29T11:15:28.553Z,65.32
2023-01-29T11:16:28.570Z,64.33
2023-01-29T11:17:28.555Z,64.64
2023-01-29T11:18:28.537Z,63.29
2023-01-29T11:19:28.672Z,63.71
2023-01-29T11:20:28.521Z,63.21
2023-01-29T11:21:28.525Z,64.04
2023-01-29T11:22:28.510Z,63.40
2023-01-29T11:23:28.519Z,63.68
2023-01-29T11:24:28.528Z,61.21
2023-01-29T11:25:28.480Z,60.63
2023-01-29T11:26:28.548Z,59.80
2023-01-29T11:27:28.493Z,59.47
2023-01-29T11:28:28.454Z,58.07
2023-01-29T11:29:28.763Z,58.43
2023-01-29T11:30:28.458Z,56.90
2023-01-29T11:31:28.510Z,56.31
2023-01-29T11:32:28.440Z,58.20
2023-01-29T11:33:28.448Z,57.89
2023-01-29T11:34:28.423Z,57.55
2023-01-29T11:35:28.452Z,57.76
2023-01-29T11:36:28.555Z,57.34
2023-01-29T11:37:28.428Z,56.90
2023-01-29T11:38:28.432Z,56.18
2023-01-29T11:39:28.396Z,56.54
2023-01-29T11:40:28.388Z,57.84
2023-01-29T11:41:28.379Z,58.18
2023-01-29T11:42:28.395Z,59.45
2023-01-29T11:43:28.393Z,60.10
2023-01-29T11:44:28.375Z,60.46
2023-01-29T11:45:28.379Z,61.22
2023-01-29T11:46:28.446Z,62.83
2023-01-29T11:47:28.377Z,63.69
2023-01-29T11:48:28.334Z,64.21
2023-01-29T11:49:28.342Z,64.24
2023-01-29T11:50:28.347Z,65.31
2023-01-29T11:51:28.314Z,66.17
2023-01-29T11:52:28.333Z,66.93
2023-01-29T11:53:28.316Z,67.58
2023-01-29T11:54:28.316Z,67.61
2023-01-29T11:55:29.646Z,68.76
2023-01-29T11:56:28.293Z,68.35
2023-01-29T11:57:28.281Z,68.35
2023-01-29T11:58:28.293Z,68.35
2023-01-29T11:59:28.277Z,68.97
2023-01-29T12:00:28.270Z,69.70
2023-01-29T12:01:28.249Z,69.07
2023-01-29T12:02:28.259Z,68.42
2023-01-29T12:03:28.269Z,68.32
2023-01-29T12:04:28.271Z,67.38
2023-01-29T12:05:28.241Z,68.32
2023-01-29T12:06:28.259Z,67.97
2023-01-29T12:07:28.214Z,67.58
2023-01-29T12:08:28.258Z,68.28
2023-01-29T12:09:28.242Z,67.03
2023-01-29T12:10:28.198Z,67.55
2023-01-29T12:11:28.194Z,67.35
2023-01-29T12:12:28.196Z,66.83
2023-01-29T12:13:28.165Z,66.93
2023-01-29T12:14:28.208Z,66.62
2023-01-29T12:15:28.168Z,66.62
2023-01-29T12:16:28.198Z,66.41
2023-01-29T12:17:28.146Z,66.83
2023-01-29T12:18:28.177Z,67.35
2023-01-29T12:19:28.129Z,67.66
2023-01-29T12:20:28.131Z,67.97
2023-01-29T12:21:28.138Z,67.55
2023-01-29T12:22:28.123Z,67.32
2023-01-29T12:23:28.113Z,66.90
2023-01-29T12:24:28.141Z,66.59
2023-01-29T12:25:28.099Z,66.56
2023-01-29T12:26:28.125Z,66.74
2023-01-29T12:27:28.097Z,65.14
2023-01-29T12:28:28.073Z,64.52
2023-01-29T12:29:28.140Z,64.31
2023-01-29T12:30:28.127Z,65.07
2023-01-29T12:31:28.073Z,65.25
2023-01-29T12:32:28.063Z,65.25
2023-01-29T12:33:28.071Z,65.42
2023-01-29T12:34:28.042Z,63.66
2023-01-29T12:35:28.068Z,63.76
2023-01-29T12:36:28.047Z,63.28
2023-01-29T12:37:28.054Z,64.49
2023-01-29T12:38:28.014Z,63.48
2023-01-29T12:39:28.006Z,63.69
2023-01-29T12:40:27.999Z,63.90
2023-01-29T12:41:27.992Z,64.11
2023-01-29T12:42:28.000Z,63.87
2023-01-29T12:43:28.017Z,64.39
2023-01-29T12:44:28.005Z,63.66
2023-01-29T12:45:27.974Z,63.32
2023-01-29T12:46:28.001Z,62.38
2023-01-29T12:47:27.968Z,63.01
2023-01-29T12:48:27.940Z,62.62
2023-01-29T12:49:27.967Z,63.21
2023-01-29T12:50:27.947Z,62.90
2023-01-29T12:51:27.934Z,63.01
2023-01-29T12:52:27.922Z,63.32